createdAt,value
2023-02-28T00:03:46.125Z,99.90
2023-02-28T00:08:09.251Z,99.90
2023-02-28T00:12:31.396Z,99.90
2023-02-28T00:16:53.336Z,99.90
2023-02-28T00:21:16.774Z,99.90
2023-02-28T00:25:38.813Z,99.90
2023-02-28T00:30:01.126Z,99.90
2023-02-28T00:34:23.747Z,99.90
2023-02-28T00:38:45.548Z,99.90
2023-02-28T00:43:07.704Z,99.90
2023-02-28T00:47:29.515Z,99.90
2023-02-28T00:51:52.467Z,99.90
2023-02-28T00:56:15.026Z,99.90
2023-02-28T01:00:37.244Z,99.90
2023-02-28T01:04:59.189Z,99.90
2023-02-28T01:09:21.281Z,99.90
2023-02-28T01:13:44.327Z,99.90
2023-02-28T01:18:08.078Z,99.90
2023-02-28T01:22:30.489Z,99.90
2023-02-28T01:26:52.531Z,99.90
2023-02-28T01:31:17.033Z,99.90
2023-02-28T01:35:39.318Z,99.90
2023-02-28T01:40:01.316Z,99.90
2023-02-28T01:45:07.532Z,99.90
2023-02-28T01:49:29.831Z,99.90
2023-02-28T01:54:02.185Z,99.90
2023-02-28T01:58:25.263Z,99.90
2023-02-28T02:02:52.809Z,99.90
2023-02-28T02:07:16.083Z,99.90
2023-02-28T02:11:44.461Z,99.90
2023-02-28T02:16:39.482Z,99.90
2023-02-28T02:21:51.381Z,99.90
2023-02-28T02:27:00.301Z,99.90
2023-02-28T02:31:46.555Z,99.90
2023-02-28T02:36:34.363Z,99.90
2023-02-28T02:41:16.027Z,99.90
2023-02-28T02:45:54.380Z,99.90
2023-02-28T02:50:26.976Z,99.90
2023-02-28T02:54:56.187Z,99.90
2023-02-28T02:59:25.021Z,99.90
2023-02-28T03:03:47.573Z,99.90
2023-02-28T03:08:09.602Z,99.90
2023-02-28T03:12:50.354Z,99.90
2023-02-28T03:17:37.923Z,99.90
2023-02-28T03:22:56.244Z,99.90
2023-02-28T03:28:05.648Z,99.90
2023-02-28T03:32:36.302Z,99.90
2023-02-28T03:37:10.301Z,99.90
2023-02-28T03:42:12.435Z,99.90
2023-02-28T03:46:43.349Z,99.90
2023-02-28T03:51:10.175Z,99.90
2023-02-28T03:55:45.853Z,99.90
2023-02-28T04:00:14.947Z,99.90
2023-02-28T04:04:37.563Z,99.90
2023-02-28T04:09:01.061Z,99.90
2023-02-28T04:13:23.311Z,99.90
2023-02-28T04:17:45.108Z,99.90
2023-02-28T04:22:07.537Z,99.90
2023-02-28T04:26:39.086Z,99.90
2023-02-28T04:31:05.050Z,99.90
2023-02-28T04:35:27.040Z,99.90
2023-02-28T04:39:49.268Z,99.90
2023-02-28T04:44:11.608Z,99.90
2023-02-28T04:48:37.070Z,99.90
2023-02-28T04:52:59.214Z,99.90
2023-02-28T04:57:21.282Z,99.90
2023-02-28T05:01:48.527Z,99.90
2023-02-28T05:06:12.641Z,99.90
2023-02-28T05:10:35.253Z,99.90
2023-02-28T05:14:57.523Z,99.90
2023-02-28T05:19:20.240Z,99.90
2023-02-28T05:23:42.479Z,99.90
2023-02-28T05:28:05.042Z,99.90
2023-02-28T05:32:27.156Z,99.90
2023-02-28T05:36:49.240Z,99.90
2023-02-28T05:41:12.421Z,99.90
2023-02-28T05:45:34.684Z,99.90
2023-02-28T05:49:57.059Z,99.90
2023-02-28T05:54:19.401Z,99.90
2023-02-28T05:58:41.182Z,99.90
2023-02-28T06:03:03.656Z,99.90
2023-02-28T06:07:27.324Z,99.90
2023-02-28T06:11:49.391Z,99.90
2023-02-28T06:16:13.477Z,99.90
2023-02-28T06:20:35.685Z,99.90
2023-02-28T06:24:58.084Z,99.90
2023-02-28T06:29:20.347Z,99.90
2023-02-28T06:33:43.826Z,99.90
2023-02-28T06:38:05.953Z,99.90
2023-02-28T06:42:29.874Z,99.90
2023-02-28T06:46:52.068Z,99.90
2023-02-28T06:51:23.612Z,99.90
2023-02-28T06:55:45.731Z,99.90
2023-02-28T07:00:10.577Z,99.90
2023-02-28T07:04:32.925Z,99.90
2023-02-28T07:08:55.706Z,99.90
2023-02-28T07:13:17.902Z,99.90
2023-02-28T07:17:39.907Z,98.50
2023-02-28T07:22:03.867Z,97.10
2023-02-28T07:26:25.902Z,96.50
2023-02-28T07:30:49.257Z,96.20
2023-02-28T07:35:11.363Z,95.30
2023-02-28T07:39:33.152Z,94.00
2023-02-28T07:43:56.914Z,93.90
2023-02-28T07:48:18.988Z,91.40
2023-02-28T07:52:41.889Z,91.50
2023-02-28T07:57:04.210Z,91.10
2023-02-28T08:01:26.315Z,90.00
2023-02-28T08:05:49.200Z,86.90
2023-02-28T08:10:11.665Z,84.90
2023-02-28T08:14:34.265Z,77.00
2023-02-28T08:18:56.554Z,72.80
2023-02-28T08:23:18.448Z,68.10
2023-02-28T08:27:40.448Z,66.60
2023-02-28T08:32:02.281Z,65.10
2023-02-28T08:36:26.111Z,67.70
2023-02-28T08:40:48.058Z,65.10
2023-02-28T08:45:10.630Z,61.50
2023-02-28T08:49:32.945Z,58.90
2023-02-28T08:54:04.483Z,59.10
2023-02-28T08:58:26.831Z,59.80
2023-02-28T09:02:49.447Z,57.10
2023-02-28T09:07:11.460Z,57.30
2023-02-28T09:11:34.141Z,58.00
2023-02-28T09:16:00.602Z,59.00
2023-02-28T09:20:22.442Z,60.20
2023-02-28T09:24:45.709Z,61.00
2023-02-28T09:29:07.869Z,60.50
2023-02-28T09:33:29.931Z,59.50
2023-02-28T09:37:53.173Z,58.20
2023-02-28T09:42:26.426Z,58.80
2023-02-28T09:46:54.683Z,59.80
2023-02-28T09:51:34.698Z,57.60
2023-02-28T09:56:00.854Z,57.40
2023-02-28T10:00:34.733Z,60.10
2023-02-28T10:05:01.189Z,59.40
2023-02-28T10:09:30.450Z,58.20
2023-02-28T10:14:02.707Z,58.30
2023-02-28T10:18:41.324Z,57.50
2023-02-28T10:23:38.626Z,59.70
2023-02-28T10:28:16.098Z,61.60
2023-02-28T10:32:40.986Z,63.10
2023-02-28T10:37:08.600Z,58.80
2023-02-28T10:41:37.463Z,59.80
2023-02-28T10:46:11.699Z,61.80
2023-02-28T10:50:54.607Z,61.60
2023-02-28T10:55:26.991Z,62.40
2023-02-28T10:59:56.115Z,60.80
2023-02-28T11:04:40.664Z,62.70
2023-02-28T11:09:25.443Z,64.40
2023-02-28T11:13:48.845Z,60.90
2023-02-28T11:18:13.718Z,63.60
2023-02-28T11:22:44.399Z,63.40
2023-02-28T11:27:06.259Z,62.60
2023-02-28T11:31:31.077Z,64.80
2023-02-28T11:35:59.294Z,63.30
2023-02-28T11:40:54.237Z,62.00
2023-02-28T11:46:04.969Z,60.10
2023-02-28T11:51:12.742Z,59.30
2023-02-28T11:55:54.931Z,62.70
2023-02-28T12:01:03.568Z,67.30
2023-02-28T12:06:11.067Z,69.50
2023-02-28T12:11:17.657Z,72.10
2023-02-28T12:15:45.269Z,71.60
2023-02-28T12:20:30.859Z,72.30
2023-02-28T12:25:07.724Z,76.50
2023-02-28T12:29:44.451Z,79.30
2023-02-28T12:34:19.027Z,82.00
2023-02-28T12:38:56.906Z,85.10
2023-02-28T12:43:22.027Z,90.90
2023-02-28T12:47:47.727Z,91.90
2023-02-28T12:52:12.291Z,94.40
2023-02-28T12:57:01.328Z,96.20
2023-02-28T13:01:46.465Z,96.80
2023-02-28T13:06:53.957Z,99.10
2023-02-28T13:11:41.152Z,99.80
2023-02-28T13:16:09.160Z,99.90
2023-02-28T13:20:37.431Z,99.90
2023-02-28T13:24:59.742Z,99.90
2023-02-28T13:29:45.602Z,99.90
2023-02-28T13:34:16.289Z,99.90
2023-02-28T13:39:01.682Z,99.90
2023-02-28T13:44:10.112Z,99.90
2023-02-28T13:48:32.412Z,99.90
2023-02-28T13:53:15.497Z,99.90
2023-02-28T13:58:18.231Z,99.90
2023-02-28T14:03:14.266Z,99.90
2023-02-28T14:07:49.830Z,99.90
2023-02-28T14:12:59.887Z,99.90
2023-02-28T14:17:21.767Z,99.90
2023-02-28T14:22:20.586Z,99.90
2023-02-28T14:28:09.205Z,99.90
2023-02-28T14:33:06.724Z,99.90
2023-02-28T14:37:34.263Z,99.90
2023-02-28T14:41:56.927Z,99.90
2023-02-28T14:46:20.785Z,99.90
2023-02-28T14:50:52.668Z,99.90
2023-02-28T14:55:20.226Z,99.90
2023-02-28T14:59:42.646Z,99.90
2023-02-28T15:04:07.465Z,99.90
2023-02-28T15:08:32.894Z,99.90
2023-02-28T15:12:59.279Z,99.90
2023-02-28T15:17:25.873Z,99.90
2023-02-28T15:21:54.242Z,99.90
2023-02-28T15:26:24.386Z,99.90
2023-02-28T15:31:02.440Z,99.90
2023-02-28T15:35:25.921Z,99.90
2023-02-28T15:39:48.749Z,99.90
2023-02-28T15:44:27.899Z,99.90
2023-02-28T15:48:55.564Z,99.90
2023-02-28T15:53:29.720Z,99.90
2023-02-28T15:57:59.818Z,99.90
2023-02-28T16:02:32.332Z,99.90
2023-02-28T16:07:00.769Z,99.90
2023-02-28T16:11:23.681Z,99.90
2023-02-28T16:15:45.904Z,99.90
2023-02-28T16:20:16.666Z,99.90
2023-02-28T16:24:39.783Z,99.90
2023-02-28T16:29:03.533Z,99.90
2023-02-28T16:33:25.812Z,99.90
2023-02-28T16:37:48.385Z,99.90
2023-02-28T16:42:29.863Z,99.90
2023-02-28T16:46:51.920Z,99.90
2023-02-28T16:51:16.793Z,99.90
2023-02-28T16:55:39.218Z,99.90
2023-02-28T17:00:01.210Z,99.90
2023-02-28T17:04:23.565Z,99.90
2023-02-28T17:08:45.629Z,99.90
2023-02-28T17:13:14.905Z,99.90
2023-02-28T17:17:37.384Z,99.90
2023-02-28T17:21:59.518Z,99.90
2023-02-28T17:26:25.823Z,99.90
2023-02-28T17:30:48.877Z,99.90
2023-02-28T17:35:11.968Z,99.90
2023-02-28T17:39:34.331Z,99.90
2023-02-28T17:43:57.505Z,99.90
2023-02-28T17:48:19.454Z,99.90
2023-02-28T17:52:42.753Z,99.90
2023-02-28T17:57:05.147Z,99.90
2023-02-28T18:01:27.597Z,99.90
2023-02-28T18:05:50.355Z,99.90
2023-02-28T18:10:20.609Z,99.90
2023-02-28T18:14:43.594Z,99.90
2023-02-28T18:19:07.156Z,99.90
2023-02-28T18:23:29.587Z,99.90
2023-02-28T18:27:58.436Z,99.90
2023-02-28T18:32:20.323Z,99.90
2023-02-28T18:36:42.891Z,99.90
2023-02-28T18:41:07.571Z,99.90
2023-02-28T18:45:29.922Z,99.90
2023-02-28T18:49:51.641Z,99.90
2023-02-28T18:54:15.585Z,99.90
2023-02-28T18:58:37.761Z,99.90
2023-02-28T19:02:59.861Z,99.90
2023-02-28T19:07:22.063Z,99.90
2023-02-28T19:11:44.004Z,99.90
2023-02-28T19:16:08.463Z,99.90
2023-02-28T19:20:30.692Z,99.90
2023-02-28T19:25:31.044Z,99.90
2023-02-28T19:31:01.949Z,99.90
2023-02-28T19:35:36.684Z,99.90
2023-02-28T19:46:19.560Z,99.90
2023-02-28T19:51:36.837Z,99.90
2023-02-28T20:02:03.030Z,99.90
2023-02-28T20:12:47.445Z,99.90
2023-02-28T20:23:20.287Z,99.90
2023-02-28T20:28:40.852Z,99.90
2023-02-28T20:33:28.985Z,99.90
2023-02-28T20:37:52.145Z,99.90
2023-02-28T20:42:15.544Z,99.90
2023-02-28T20:46:37.838Z,99.90
2023-02-28T20:51:00.364Z,99.90
2023-02-28T20:55:22.116Z,99.90
2023-02-28T20:59:44.414Z,99.90
2023-02-28T21:04:08.201Z,99.90
2023-02-28T21:08:30.447Z,99.90
2023-02-28T21:12:57.853Z,99.90
2023-02-28T21:17:20.133Z,99.90
2023-02-28T21:21:48.742Z,99.90
2023-02-28T21:26:14.827Z,99.90
2023-02-28T21:30:37.864Z,99.90
2023-02-28T21:35:00.033Z,99.90
2023-02-28T21:39:29.036Z,99.90
2023-02-28T21:43:52.158Z,99.90
2023-02-28T21:48:14.073Z,99.90
2023-02-28T21:52:36.856Z,99.90
2023-02-28T21:56:59.987Z,99.90
2023-02-28T22:01:22.885Z,99.90
2023-02-28T22:05:44.709Z,99.90
2023-02-28T22:10:07.087Z,99.90
2023-02-28T22:14:28.929Z,99.90
2023-02-28T22:18:51.448Z,99.90
2023-02-28T22:23:13.545Z,99.90
2023-02-28T22:27:35.911Z,99.90
2023-02-28T22:31:57.742Z,99.90
2023-02-28T22:36:21.627Z,99.90
2023-02-28T22:40:43.646Z,99.90
2023-02-28T22:45:05.926Z,99.90
2023-02-28T22:49:28.461Z,99.90
2023-02-28T22:53:52.129Z,99.90
2023-02-28T22:58:13.965Z,99.90
2023-02-28T23:02:37.041Z,99.90
2023-02-28T23:06:59.362Z,99.90
2023-02-28T23:11:30.124Z,99.90
2023-02-28T23:15:51.963Z,99.90
2023-02-28T23:20:17.706Z,99.90
2023-02-28T23:24:39.740Z,99.90
2023-02-28T23:29:01.879Z,99.90
2023-02-28T23:33:23.660Z,99.90
2023-02-28T23:37:45.940Z,99.90
2023-02-28T23:42:08.161Z,99.90
2023-02-28T23:46:30.515Z,99.90
2023-02-28T23:50:52.639Z,99.90
2023-02-28T23:55:14.999Z,99.90
2023-02-28T23:59:37.203Z,99.90
